Time;durP1;ratioP1;P1;durP2;ratioP2;P2;SDS_P1;SDS_P2;PMS_P1;PMS_P2;Temp;Humidity;BMP_temperature;BMP_pressure;BME280_temperature;BME280_humidity;BME280_pressure;Samples;Min_cycle;Max_cycle;Signal;HPM_P1;HPM_P2
2023/05/24 00:00:17;;;;;;;10.38;3.35;;;14.10;99.90;;;;;;5065750;28;20184;-90
2023/05/24 00:02:48;;;;;;;8.25;3.33;;;14.20;99.90;;;;;;5064057;28;20208;-91
2023/05/24 00:05:29;;;;;;;7.43;3.30;;;14.30;99.90;;;;;;5068350;28;20571;-90
2023/05/24 00:08:04;;;;;;;7.82;3.28;;;14.30;99.90;;;;;;5053067;28;20239;-89
2023/05/24 00:10:36;;;;;;;6.50;2.88;;;14.40;99.90;;;;;;5052067;28;20196;-90
2023/05/24 00:13:08;;;;;;;11.27;3.65;;;14.50;99.90;;;;;;5053482;28;20227;-89
2023/05/24 00:15:40;;;;;;;10.57;3.55;;;14.50;99.90;;;;;;5054515;28;20577;-86
2023/05/24 00:18:11;;;;;;;7.57;3.53;;;14.50;99.90;;;;;;5075036;28;20234;-88
2023/05/24 00:20:45;;;;;;;6.60;3.35;;;14.60;99.90;;;;;;5075989;28;20287;-88
2023/05/24 00:23:20;;;;;;;10.93;3.38;;;14.60;99.90;;;;;;5066249;28;20219;-90
2023/05/24 00:25:51;;;;;;;9.07;3.38;;;14.70;99.90;;;;;;5059557;28;20250;-88
2023/05/24 00:28:25;;;;;;;8.15;3.30;;;14.80;99.90;;;;;;5062367;28;20314;-88
2023/05/24 00:30:56;;;;;;;8.48;3.10;;;14.90;99.90;;;;;;5057859;28;20191;-88
2023/05/24 00:33:28;;;;;;;13.88;3.45;;;14.90;99.90;;;;;;5071181;28;20201;-87
2023/05/24 00:36:05;;;;;;;10.85;3.78;;;15.00;99.90;;;;;;5077203;28;20189;-89
2023/05/24 00:38:37;;;;;;;11.02;3.60;;;15.00;99.90;;;;;;5093794;28;20235;-88
2023/05/24 00:41:11;;;;;;;13.20;3.90;;;15.10;99.90;;;;;;5097675;28;20218;-89
2023/05/24 00:43:43;;;;;;;10.23;3.25;;;15.20;99.90;;;;;;5097553;28;20230;-89
2023/05/24 00:46:19;;;;;;;9.18;3.50;;;15.30;99.90;;;;;;5096877;28;20210;-90
2023/05/24 00:48:53;;;;;;;9.25;3.83;;;15.30;99.90;;;;;;5088893;28;20650;-89
2023/05/24 00:51:29;;;;;;;10.23;3.13;;;15.30;99.90;;;;;;5078992;28;20200;-89
2023/05/24 00:54:00;;;;;;;9.15;3.60;;;15.40;99.90;;;;;;5078145;28;20210;-90
2023/05/24 00:56:33;;;;;;;8.10;3.10;;;15.50;99.90;;;;;;5077706;28;20234;-90
2023/05/24 00:59:04;;;;;;;5.72;2.97;;;15.60;99.90;;;;;;5080486;28;20258;-89
2023/05/24 01:01:36;;;;;;;13.05;3.17;;;15.60;99.90;;;;;;5076826;28;20202;-89
2023/05/24 01:04:07;;;;;;;7.35;3.28;;;15.70;99.90;;;;;;5077038;28;20220;-88
2023/05/24 01:06:48;;;;;;;11.63;3.42;;;15.80;99.90;;;;;;5074887;28;20200;-89
2023/05/24 01:09:33;;;;;;;11.65;3.70;;;15.90;99.90;;;;;;5075353;28;20200;-90
2023/05/24 01:12:20;;;;;;;5.43;3.05;;;16.00;99.90;;;;;;5074828;28;20282;-88
2023/05/24 01:15:03;;;;;;;8.63;3.65;;;16.00;99.90;;;;;;5056461;28;20219;-89
2023/05/24 01:17:45;;;;;;;11.80;3.92;;;16.10;99.90;;;;;;5055862;28;20222;-87
2023/05/24 01:20:21;;;;;;;6.43;3.20;;;16.30;99.90;;;;;;5056194;28;20284;-88
2023/05/24 01:23:30;;;;;;;8.27;3.42;;;16.30;99.90;;;;;;5063688;28;20196;-89
2023/05/24 01:26:18;;;;;;;13.52;4.55;;;16.50;99.90;;;;;;5054565;28;20243;-87
2023/05/24 01:28:52;;;;;;;13.52;4.38;;;16.50;99.90;;;;;;5061908;28;20666;-88
2023/05/24 01:31:24;;;;;;;7.78;3.15;;;16.60;99.90;;;;;;5072903;28;20201;-88
2023/05/24 01:33:56;;;;;;;11.15;3.85;;;16.70;99.90;;;;;;5074348;28;20204;-88
2023/05/24 01:36:30;;;;;;;10.43;3.85;;;16.70;99.90;;;;;;5074573;28;20192;-88
2023/05/24 01:39:01;;;;;;;9.90;3.72;;;16.70;99.90;;;;;;5077467;28;20314;-87
2023/05/24 01:41:42;;;;;;;7.90;2.60;;;16.70;99.90;;;;;;5074403;28;20196;-88
2023/05/24 01:44:25;;;;;;;3.78;1.95;;;16.90;99.90;;;;;;5074346;28;20214;-88
2023/05/24 01:47:04;;;;;;;7.82;2.15;;;16.90;99.90;;;;;;5074020;28;20204;-88
2023/05/24 01:49:40;;;;;;;6.30;2.47;;;17.10;99.90;;;;;;5073694;28;20219;-89
2023/05/24 01:52:15;;;;;;;6.32;2.55;;;17.20;99.90;;;;;;5054506;28;20196;-88
2023/05/24 01:54:53;;;;;;;5.97;2.40;;;17.30;99.90;;;;;;5057034;28;20204;-88
2023/05/24 01:57:27;;;;;;;4.00;2.30;;;17.40;99.90;;;;;;5063720;28;20200;-89
2023/05/24 02:00:04;;;;;;;7.43;2.13;;;17.40;99.90;;;;;;5054183;28;20275;-87
2023/05/24 02:02:37;;;;;;;6.60;2.70;;;17.60;99.90;;;;;;5060255;28;20195;-87
2023/05/24 02:05:09;;;;;;;6.38;2.60;;;17.60;99.90;;;;;;5073664;28;20210;-88
2023/05/24 02:07:50;;;;;;;6.80;2.50;;;17.70;99.90;;;;;;5073334;28;20227;-88
2023/05/24 02:10:22;;;;;;;4.47;2.10;;;17.70;99.90;;;;;;5078736;28;20202;-87
2023/05/24 02:12:53;;;;;;;7.93;2.60;;;17.80;99.90;;;;;;5072534;28;20262;-88
2023/05/24 02:15:29;;;;;;;7.20;2.78;;;17.90;99.90;;;;;;5074343;28;20196;-88
2023/05/24 02:18:00;;;;;;;7.63;2.60;;;18.00;99.90;;;;;;5074670;28;20226;-89
2023/05/24 02:20:35;;;;;;;8.32;2.47;;;17.90;99.90;;;;;;5072782;28;20196;-88
2023/05/24 02:23:07;;;;;;;7.55;2.55;;;18.00;99.90;;;;;;5073057;28;20702;-87
2023/05/24 02:25:39;;;;;;;7.10;2.63;;;18.00;99.90;;;;;;5073083;28;20654;-87
2023/05/24 02:28:10;;;;;;;5.10;2.03;;;18.10;99.90;;;;;;5072775;28;20231;-88
2023/05/24 02:30:43;;;;;;;6.95;2.50;;;18.10;99.90;;;;;;5073325;28;20202;-88
2023/05/24 02:33:18;;;;;;;5.63;2.65;;;18.30;99.90;;;;;;5073030;28;20623;-88
2023/05/24 02:35:55;;;;;;;6.90;2.20;;;18.40;99.90;;;;;;5073877;28;20199;-87
2023/05/24 02:38:27;;;;;;;5.38;2.10;;;18.50;99.90;;;;;;5054600;28;20223;-87
2023/05/24 02:41:00;;;;;;;6.15;2.35;;;18.60;99.90;;;;;;5063575;28;20211;-86
2023/05/24 02:43:34;;;;;;;7.03;2.22;;;18.70;99.90;;;;;;5056050;28;20260;-88
2023/05/24 02:46:08;;;;;;;7.30;3.00;;;18.80;99.90;;;;;;5069916;28;20249;-88
2023/05/24 02:48:39;;;;;;;5.40;2.60;;;18.90;99.90;;;;;;5072719;28;20200;-87
2023/05/24 02:51:11;;;;;;;7.18;2.28;;;19.10;99.90;;;;;;5072652;28;20209;-86
2023/05/24 02:53:45;;;;;;;3.88;2.05;;;19.20;99.90;;;;;;5072494;28;20210;-86
2023/05/24 02:56:16;;;;;;;5.85;2.13;;;19.20;99.90;;;;;;5072402;28;20604;-87
2023/05/24 02:58:48;;;;;;;8.45;2.28;;;19.30;99.90;;;;;;5072265;28;20227;-87
2023/05/24 03:01:22;;;;;;;4.18;2.17;;;19.30;99.90;;;;;;5072765;28;20198;-87
2023/05/24 03:03:53;;;;;;;4.60;1.67;;;19.30;99.90;;;;;;5072783;28;20199;-86
2023/05/24 03:06:25;;;;;;;7.15;2.28;;;19.40;99.90;;;;;;5072601;28;20222;-87
2023/05/24 03:09:00;;;;;;;5.55;2.05;;;19.40;99.90;;;;;;5072519;28;20195;-86
2023/05/24 03:11:31;;;;;;;3.78;1.60;;;19.40;99.90;;;;;;5072210;28;20199;-87
2023/05/24 03:14:05;;;;;;;4.68;1.90;;;19.50;99.90;;;;;;5072392;28;20210;-87
2023/05/24 03:16:38;;;;;;;3.33;1.83;;;19.50;99.90;;;;;;5072010;28;20202;-86
2023/05/24 03:19:10;;;;;;;6.43;2.30;;;19.60;99.90;;;;;;5071729;28;20628;-87
2023/05/24 03:21:42;;;;;;;5.65;1.95;;;19.60;99.90;;;;;;5071956;28;20204;-86
2023/05/24 03:24:14;;;;;;;6.47;1.90;;;19.70;99.90;;;;;;5072238;28;20206;-86
2023/05/24 03:26:45;;;;;;;3.05;1.60;;;19.70;99.90;;;;;;5071539;28;20200;-87
2023/05/24 03:29:17;;;;;;;5.85;1.85;;;19.70;99.90;;;;;;5067621;28;20251;-86
2023/05/24 03:31:50;;;;;;;3.03;1.50;;;19.80;99.90;;;;;;5053253;28;20211;-87
2023/05/24 03:34:23;;;;;;;4.40;1.58;;;19.80;99.90;;;;;;5054851;28;20208;-87
2023/05/24 03:36:56;;;;;;;3.90;1.50;;;19.90;99.90;;;;;;5076690;28;20192;-86
2023/05/24 03:39:27;;;;;;;3.05;1.50;;;19.80;99.90;;;;;;5075108;28;20230;-86
2023/05/24 03:41:58;;;;;;;2.80;1.30;;;19.80;99.90;;;;;;5074512;28;20200;-86
2023/05/24 03:44:29;;;;;;;3.42;1.60;;;19.70;99.90;;;;;;5071419;28;20204;-86
2023/05/24 03:47:04;;;;;;;3.67;1.90;;;19.70;99.90;;;;;;5071849;28;20287;-84
2023/05/24 03:49:35;;;;;;;5.78;1.70;;;19.60;99.90;;;;;;5072184;28;20202;-87
2023/05/24 03:52:07;;;;;;;4.63;1.50;;;19.60;99.90;;;;;;5074631;28;20204;-87
2023/05/24 03:54:39;;;;;;;4.40;1.52;;;19.60;99.90;;;;;;5076078;28;20203;-87
2023/05/24 03:57:10;;;;;;;2.90;1.52;;;19.70;99.90;;;;;;5075657;28;20208;-87
2023/05/24 03:59:42;;;;;;;2.92;1.67;;;19.70;99.90;;;;;;5078264;28;20227;-86
2023/05/24 04:02:17;;;;;;;4.60;1.50;;;19.70;99.90;;;;;;5085077;28;20203;-88
2023/05/24 04:04:49;;;;;;;4.85;1.67;;;19.70;99.90;;;;;;5076030;28;20195;-86
2023/05/24 04:07:23;;;;;;;3.42;1.70;;;19.70;99.90;;;;;;5075565;28;20216;-86
2023/05/24 04:09:54;;;;;;;4.93;1.85;;;19.70;99.90;;;;;;5088608;28;20210;-85
2023/05/24 04:12:25;;;;;;;5.20;1.90;;;19.70;99.90;;;;;;5082763;28;20196;-85
2023/05/24 04:14:57;;;;;;;3.65;1.70;;;19.80;99.90;;;;;;5080006;28;20765;-85
2023/05/24 04:17:33;;;;;;;3.90;1.77;;;19.70;99.90;;;;;;5075509;28;20206;-86
2023/05/24 04:20:05;;;;;;;6.97;1.98;;;19.70;99.90;;;;;;5074172;28;20705;-86
2023/05/24 04:22:38;;;;;;;5.57;2.10;;;19.60;99.90;;;;;;5073822;28;20184;-86
2023/05/24 04:25:09;;;;;;;4.03;1.77;;;19.60;99.90;;;;;;5075052;28;20204;-87
2023/05/24 04:27:40;;;;;;;3.33;1.50;;;19.60;99.90;;;;;;5064870;28;20221;-86
2023/05/24 04:30:13;;;;;;;4.32;1.88;;;19.60;99.90;;;;;;5054740;28;20201;-87
2023/05/24 04:32:47;;;;;;;5.40;1.80;;;19.60;99.90;;;;;;5054364;28;20679;-87
2023/05/24 04:35:20;;;;;;;8.13;2.17;;;19.60;99.90;;;;;;5058050;28;20211;-88
2023/05/24 04:37:51;;;;;;;4.93;2.15;;;19.60;99.90;;;;;;5074563;28;20319;-87
2023/05/24 04:40:22;;;;;;;3.75;1.90;;;19.60;99.90;;;;;;5074707;28;20231;-87
2023/05/24 04:42:53;;;;;;;4.82;2.00;;;19.60;99.90;;;;;;5075095;28;20286;-87
2023/05/24 04:45:24;;;;;;;4.63;2.00;;;19.60;99.90;;;;;;5074464;28;20210;-87
2023/05/24 04:48:02;;;;;;;4.18;2.30;;;19.50;99.90;;;;;;5074862;28;20275;-87
2023/05/24 04:50:36;;;;;;;6.47;2.22;;;19.50;99.90;;;;;;5073359;28;20192;-86
2023/05/24 04:53:07;;;;;;;6.18;2.10;;;19.50;99.90;;;;;;5064931;28;20204;-88
2023/05/24 04:55:38;;;;;;;7.28;2.55;;;19.50;99.90;;;;;;5076687;28;20192;-87
2023/05/24 04:58:12;;;;;;;5.72;2.35;;;19.40;99.90;;;;;;5076231;28;20198;-87
2023/05/24 05:00:47;;;;;;;7.78;2.38;;;19.40;99.90;;;;;;5075839;28;20206;-87
2023/05/24 05:03:21;;;;;;;6.35;2.30;;;19.40;99.90;;;;;;5074435;28;20204;-86
2023/05/24 05:05:53;;;;;;;7.45;2.25;;;19.40;99.90;;;;;;5075778;28;20200;-87
2023/05/24 05:08:27;;;;;;;4.85;1.95;;;19.40;99.90;;;;;;5075881;28;20226;-86
2023/05/24 05:10:58;;;;;;;5.28;2.22;;;19.40;99.90;;;;;;5075266;28;20286;-87
2023/05/24 05:13:29;;;;;;;6.05;2.65;;;19.50;99.90;;;;;;5074496;28;20593;-87
2023/05/24 05:16:01;;;;;;;6.63;2.60;;;19.50;99.90;;;;;;5074923;28;20199;-86
2023/05/24 05:18:34;;;;;;;7.32;2.40;;;19.50;99.90;;;;;;5076722;28;20656;-87
2023/05/24 05:21:06;;;;;;;5.32;2.10;;;19.50;99.90;;;;;;5087034;28;20525;-87
2023/05/24 05:23:38;;;;;;;6.18;2.40;;;19.50;99.90;;;;;;5075297;28;20289;-86
2023/05/24 05:26:10;;;;;;;6.18;2.58;;;19.50;99.90;;;;;;5075148;28;20214;-85
2023/05/24 05:28:41;;;;;;;5.75;2.70;;;19.40;99.90;;;;;;5074733;28;20231;-86
2023/05/24 05:31:18;;;;;;;5.13;2.53;;;19.40;99.90;;;;;;5074835;28;20265;-87
2023/05/24 05:33:52;;;;;;;10.13;3.00;;;19.40;99.90;;;;;;5073651;28;20206;-87
2023/05/24 05:36:25;;;;;;;5.55;2.90;;;19.40;99.90;;;;;;5068018;28;20188;-87
2023/05/24 05:38:57;;;;;;;6.10;2.55;;;19.40;99.90;;;;;;5069425;28;20713;-86
2023/05/24 05:41:29;;;;;;;5.25;2.33;;;19.40;99.90;;;;;;5075916;28;20208;-86
2023/05/24 05:44:02;;;;;;;7.13;3.10;;;19.40;99.90;;;;;;5074255;28;20203;-86
2023/05/24 05:46:34;;;;;;;4.40;2.40;;;19.50;99.90;;;;;;5076608;28;20203;-86
2023/05/24 05:49:08;;;;;;;7.00;2.70;;;19.60;99.90;;;;;;5075205;28;20651;-87
2023/05/24 05:51:40;;;;;;;6.90;2.92;;;19.60;99.90;;;;;;5074595;28;20199;-86
2023/05/24 05:54:14;;;;;;;6.28;3.60;;;19.60;99.90;;;;;;5070890;28;20260;-87
2023/05/24 05:56:47;;;;;;;5.82;2.47;;;19.60;99.90;;;;;;5056317;28;20644;-85
2023/05/24 05:59:20;;;;;;;7.20;2.58;;;19.60;99.90;;;;;;5059499;28;20235;-87
2023/05/24 06:01:57;;;;;;;4.25;2.30;;;19.60;99.90;;;;;;5073601;28;20567;-86
2023/05/24 06:04:31;;;;;;;5.05;2.25;;;19.60;99.90;;;;;;5075659;28;20286;-86
2023/05/24 06:07:06;;;;;;;5.75;2.42;;;19.60;99.90;;;;;;5076549;28;20251;-87
2023/05/24 06:09:37;;;;;;;5.18;2.70;;;19.70;99.90;;;;;;5079761;28;20666;-86
2023/05/24 06:12:12;;;;;;;5.00;2.58;;;19.80;99.90;;;;;;5093717;28;20218;-87
2023/05/24 06:14:43;;;;;;;7.55;2.65;;;19.90;99.90;;;;;;5094715;28;20190;-86
2023/05/24 06:17:15;;;;;;;4.65;2.17;;;20.00;99.90;;;;;;5089332;28;20202;-87
2023/05/24 06:19:52;;;;;;;6.53;2.63;;;20.10;99.90;;;;;;5091460;28;20242;-86
2023/05/24 06:22:24;;;;;;;4.47;2.28;;;20.10;99.90;;;;;;5090632;28;20188;-87
2023/05/24 06:24:55;;;;;;;5.55;2.67;;;20.20;99.90;;;;;;5091179;28;20238;-87
2023/05/24 06:27:26;;;;;;;4.93;2.65;;;20.10;99.90;;;;;;5075293;28;20248;-87
2023/05/24 06:29:57;;;;;;;6.22;2.80;;;20.00;99.90;;;;;;5058816;28;20195;-87
2023/05/24 06:32:28;;;;;;;9.40;3.38;;;19.90;99.90;;;;;;5054909;28;20207;-86
2023/05/24 06:35:01;;;;;;;7.80;3.15;;;19.70;99.90;;;;;;5058332;28;20346;-87
2023/05/24 06:37:37;;;;;;;9.05;3.53;;;19.60;99.90;;;;;;5052798;28;20238;-86
2023/05/24 06:40:11;;;;;;;8.10;3.40;;;19.40;99.90;;;;;;5061506;28;20220;-86
2023/05/24 06:42:44;;;;;;;6.28;3.20;;;19.30;99.90;;;;;;5070582;28;20191;-87
2023/05/24 06:45:15;;;;;;;9.68;4.00;;;19.20;99.90;;;;;;5072413;28;20655;-87
2023/05/24 06:47:49;;;;;;;10.30;4.30;;;19.10;99.90;;;;;;5072590;28;20200;-87
2023/05/24 06:50:24;;;;;;;6.80;3.67;;;19.00;99.90;;;;;;5073200;28;20601;-87
2023/05/24 06:52:56;;;;;;;9.50;3.53;;;18.90;99.90;;;;;;5072972;28;20204;-86
2023/05/24 06:55:27;;;;;;;8.98;3.72;;;18.80;99.90;;;;;;5072921;28;20194;-87
2023/05/24 06:57:58;;;;;;;7.38;3.15;;;18.70;99.90;;;;;;5073277;28;20199;-87
2023/05/24 07:00:31;;;;;;;8.50;2.95;;;18.60;99.90;;;;;;5072370;28;20215;-87
2023/05/24 07:03:02;;;;;;;8.25;3.17;;;18.50;99.90;;;;;;5072593;28;20192;-87
2023/05/24 07:05:35;;;;;;;7.18;3.05;;;18.40;99.90;;;;;;5071560;28;20657;-88
2023/05/24 07:08:11;;;;;;;6.50;2.40;;;18.40;99.90;;;;;;5071966;28;20325;-87
2023/05/24 07:10:43;;;;;;;5.43;2.40;;;18.30;99.90;;;;;;5072414;28;20215;-87
2023/05/24 07:13:15;;;;;;;5.68;2.78;;;18.20;99.90;;;;;;5072497;28;20195;-87
2023/05/24 07:15:46;;;;;;;7.95;2.70;;;18.20;99.90;;;;;;5072453;28;20188;-87
2023/05/24 07:18:23;;;;;;;7.07;2.90;;;18.10;99.90;;;;;;5073023;28;20206;-88
2023/05/24 07:20:56;;;;;;;7.28;3.00;;;18.00;99.90;;;;;;5072694;28;20314;-88
2023/05/24 07:23:27;;;;;;;6.93;3.30;;;18.00;99.90;;;;;;5072775;28;20196;-87
2023/05/24 07:25:59;;;;;;;6.10;3.30;;;17.90;99.90;;;;;;5071825;28;20621;-88
2023/05/24 07:28:30;;;;;;;6.47;3.10;;;17.80;99.90;;;;;;5071772;28;20243;-86
2023/05/24 07:31:01;;;;;;;6.85;2.88;;;17.70;99.90;;;;;;5071729;28;20200;-87
2023/05/24 07:33:32;;;;;;;5.70;3.10;;;17.70;99.90;;;;;;5072269;28;20282;-86
2023/05/24 07:36:05;;;;;;;8.77;3.13;;;17.60;99.90;;;;;;5071221;28;20206;-86
2023/05/24 07:38:37;;;;;;;5.03;2.40;;;17.60;99.90;;;;;;5071344;28;20199;-85
2023/05/24 07:41:11;;;;;;;6.00;2.83;;;17.50;99.90;;;;;;5073595;28;20318;-85
2023/05/24 07:43:42;;;;;;;5.97;2.92;;;17.50;99.90;;;;;;5072151;28;20212;-85
2023/05/24 07:46:13;;;;;;;6.90;2.78;;;17.50;99.90;;;;;;5070780;28;20663;-86
2023/05/24 07:48:44;;;;;;;4.35;2.42;;;17.40;99.90;;;;;;5070832;28;20199;-86
2023/05/24 07:51:18;;;;;;;6.47;3.00;;;17.40;99.90;;;;;;5071268;28;20211;-87
2023/05/24 07:53:49;;;;;;;6.68;2.85;;;17.30;99.90;;;;;;5071204;28;20200;-86
2023/05/24 07:56:20;;;;;;;6.13;2.85;;;17.30;99.90;;;;;;5070799;28;20222;-86
2023/05/24 07:58:51;;;;;;;6.35;3.85;;;17.30;99.90;;;;;;5071821;28;20204;-86
2023/05/24 08:01:23;;;;;;;8.35;4.55;;;17.20;99.90;;;;;;5071649;28;20235;-86
2023/05/24 08:03:55;;;;;;;9.30;4.35;;;17.20;99.90;;;;;;5071162;28;20200;-87
2023/05/24 08:06:30;;;;;;;9.38;5.20;;;17.20;99.90;;;;;;5074963;28;20200;-85
2023/05/24 08:09:02;;;;;;;9.00;4.90;;;17.10;99.90;;;;;;5072438;28;20639;-86
2023/05/24 08:11:34;;;;;;;8.02;4.32;;;17.10;99.90;;;;;;5071005;28;20253;-85
2023/05/24 08:14:06;;;;;;;6.05;3.78;;;17.10;99.90;;;;;;5070535;28;20196;-86
2023/05/24 08:16:37;;;;;;;5.47;3.30;;;17.10;99.90;;;;;;5070782;28;20200;-86
2023/05/24 08:19:09;;;;;;;6.57;3.50;;;17.10;99.90;;;;;;5070844;28;20200;-86
2023/05/24 08:21:43;;;;;;;4.82;2.90;;;17.00;99.90;;;;;;5070933;28;20699;-86
2023/05/24 08:24:14;;;;;;;8.15;3.28;;;17.00;99.90;;;;;;5070696;28;20720;-87
2023/05/24 08:26:45;;;;;;;7.97;3.25;;;17.00;99.90;;;;;;5070603;28;20200;-87
2023/05/24 08:29:16;;;;;;;6.90;3.47;;;16.90;99.90;;;;;;5070637;28;20290;-86
2023/05/24 08:31:51;;;;;;;7.38;3.15;;;17.00;99.90;;;;;;5070639;28;20192;-87
2023/05/24 08:34:22;;;;;;;6.13;2.90;;;16.90;99.90;;;;;;5070492;28;20210;-87
2023/05/24 08:37:00;;;;;;;5.22;2.65;;;16.90;99.90;;;;;;5071023;28;20188;-87
2023/05/24 08:39:34;;;;;;;7.60;3.45;;;16.80;99.90;;;;;;5074304;28;20200;-87
2023/05/24 08:42:07;;;;;;;5.85;2.70;;;16.80;99.90;;;;;;5076094;28;20242;-86
2023/05/24 08:44:43;;;;;;;5.00;2.95;;;16.80;99.90;;;;;;5074355;28;20573;-87
2023/05/24 08:47:15;;;;;;;6.93;3.13;;;16.70;99.90;;;;;;5074037;28;20207;-86
2023/05/24 08:49:46;;;;;;;6.30;2.80;;;16.80;99.90;;;;;;5074267;28;20724;-86
2023/05/24 08:52:20;;;;;;;4.53;2.53;;;16.80;99.90;;;;;;5073986;28;20705;-87
2023/05/24 08:54:53;;;;;;;10.45;3.83;;;16.70;99.90;;;;;;5074123;28;20557;-86
2023/05/24 08:57:25;;;;;;;5.60;3.10;;;16.70;99.90;;;;;;5074249;28;20569;-86
2023/05/24 08:59:56;;;;;;;7.00;3.30;;;16.70;99.90;;;;;;5074002;28;20698;-86
2023/05/24 09:02:28;;;;;;;6.47;3.13;;;16.70;99.90;;;;;;5074640;28;20250;-86
2023/05/24 09:05:00;;;;;;;7.57;3.55;;;16.70;99.90;;;;;;5074555;28;20231;-87
2023/05/24 09:07:35;;;;;;;7.40;3.30;;;16.60;99.90;;;;;;5073752;28;20227;-87
2023/05/24 09:10:08;;;;;;;5.38;2.97;;;16.60;99.90;;;;;;5074230;28;20201;-87
2023/05/24 09:12:41;;;;;;;11.65;4.18;;;16.60;99.90;;;;;;5074185;28;20202;-86
2023/05/24 09:15:13;;;;;;;8.48;4.90;;;16.60;99.90;;;;;;5073638;28;20208;-87
2023/05/24 09:17:45;;;;;;;10.48;6.70;;;16.60;99.90;;;;;;5074018;28;20196;-86
2023/05/24 09:20:16;;;;;;;9.13;6.57;;;16.50;99.90;;;;;;5077302;28;20227;-86
2023/05/24 09:22:53;;;;;;;11.38;5.60;;;16.50;99.90;;;;;;5074958;28;20200;-85
2023/05/24 09:25:24;;;;;;;8.25;5.40;;;16.50;99.90;;;;;;5073257;28;20211;-85
2023/05/24 09:27:56;;;;;;;10.73;6.30;;;16.50;99.90;;;;;;5073346;28;20702;-86
2023/05/24 09:30:27;;;;;;;10.57;6.53;;;16.50;99.90;;;;;;5072256;28;20231;-87
2023/05/24 09:32:59;;;;;;;10.25;6.18;;;16.50;99.90;;;;;;5074012;28;20204;-87
2023/05/24 09:35:31;;;;;;;7.30;4.47;;;16.50;99.90;;;;;;5074010;28;20267;-87
2023/05/24 09:38:04;;;;;;;9.55;4.32;;;16.50;99.90;;;;;;5073201;28;20208;-88
2023/05/24 09:40:35;;;;;;;6.25;4.35;;;16.50;99.90;;;;;;5075325;28;20212;-87
2023/05/24 09:43:10;;;;;;;7.13;4.75;;;16.50;99.90;;;;;;5074502;28;20200;-88
2023/05/24 09:45:48;;;;;;;7.80;4.30;;;16.50;99.90;;;;;;5073527;28;20226;-87
2023/05/24 09:48:20;;;;;;;7.95;4.85;;;16.50;99.90;;;;;;5072994;28;20204;-87
2023/05/24 09:51:06;;;;;;;8.38;5.40;;;16.40;99.90;;;;;;5073166;28;20208;-87
2023/05/24 09:53:40;;;;;;;6.53;4.18;;;16.40;99.90;;;;;;5073505;28;20564;-86
2023/05/24 09:56:13;;;;;;;8.52;4.90;;;16.40;99.90;;;;;;5073311;28;20202;-87
2023/05/24 09:58:46;;;;;;;9.27;5.45;;;16.40;99.90;;;;;;5072979;28;20208;-86
2023/05/24 10:01:17;;;;;;;9.50;4.43;;;16.40;99.90;;;;;;5072853;28;20227;-86
2023/05/24 10:03:56;;;;;;;6.20;3.97;;;16.40;99.90;;;;;;5072896;28;20269;-86
2023/05/24 10:06:28;;;;;;;6.45;4.22;;;16.30;99.90;;;;;;5072953;28;20204;-86
2023/05/24 10:09:05;;;;;;;8.88;4.32;;;16.40;99.90;;;;;;5073403;28;20200;-84
2023/05/24 10:11:37;;;;;;;11.18;5.30;;;16.40;99.90;;;;;;5072998;28;20226;-86
2023/05/24 10:14:13;;;;;;;9.80;5.28;;;16.30;99.90;;;;;;5073207;28;20720;-86
2023/05/24 10:16:45;;;;;;;7.10;4.82;;;16.30;99.90;;;;;;5076255;28;20199;-85
2023/05/24 10:19:17;;;;;;;8.48;4.50;;;16.30;99.90;;;;;;5073805;28;20204;-87
2023/05/24 10:21:48;;;;;;;6.97;4.43;;;16.30;99.90;;;;;;5072868;28;20208;-87
2023/05/24 10:24:27;;;;;;;7.00;4.22;;;16.30;99.90;;;;;;5073512;28;20196;-87
2023/05/24 10:27:01;;;;;;;7.53;4.30;;;16.20;99.90;;;;;;5072985;28;20196;-86
2023/05/24 10:29:44;;;;;;;9.18;4.22;;;16.20;99.90;;;;;;5072798;28;20287;-87
2023/05/24 10:32:16;;;;;;;7.68;4.20;;;16.20;99.90;;;;;;5072386;28;20202;-88
2023/05/24 10:34:49;;;;;;;8.90;4.28;;;16.20;99.90;;;;;;5072897;28;20216;-87
2023/05/24 10:37:21;;;;;;;9.27;4.30;;;16.20;99.90;;;;;;5073127;28;20679;-87
2023/05/24 10:39:54;;;;;;;8.75;4.75;;;16.20;99.90;;;;;;5074840;28;20207;-88
2023/05/24 10:42:27;;;;;;;8.82;4.53;;;16.10;99.90;;;;;;5076880;28;20224;-88
2023/05/24 10:45:00;;;;;;;9.48;4.50;;;16.10;99.90;;;;;;5073138;28;20203;-86
2023/05/24 10:47:35;;;;;;;8.52;4.40;;;16.10;99.90;;;;;;5072647;28;20204;-87
2023/05/24 10:50:20;;;;;;;9.85;5.68;;;16.00;99.90;;;;;;5072378;28;20203;-87
2023/05/24 10:52:52;;;;;;;10.50;5.70;;;16.00;99.90;;;;;;5072356;28;20282;-87
2023/05/24 10:55:27;;;;;;;15.52;6.10;;;16.00;99.90;;;;;;5072580;28;20203;-87
2023/05/24 10:57:58;;;;;;;9.52;5.47;;;16.00;99.90;;;;;;5072833;28;20282;-87
2023/05/24 11:00:31;;;;;;;8.77;5.30;;;16.00;99.90;;;;;;5072119;28;20212;-88
2023/05/24 11:03:09;;;;;;;9.10;5.18;;;16.00;99.90;;;;;;5072419;28;20199;-88
2023/05/24 11:05:54;;;;;;;10.82;4.50;;;15.90;99.90;;;;;;5071900;28;20199;-87
2023/05/24 11:08:36;;;;;;;7.90;4.47;;;15.90;99.90;;;;;;5051850;28;20224;-87
2023/05/24 11:11:19;;;;;;;8.65;5.28;;;15.90;99.90;;;;;;5052659;28;20258;-87
2023/05/24 11:13:50;;;;;;;20.25;13.52;;;15.90;99.90;;;;;;5052261;28;20193;-86
2023/05/24 11:16:39;;;;;;;19.85;13.50;;;15.90;99.90;;;;;;5052713;28;20200;-85
2023/05/24 11:19:20;;;;;;;10.57;6.55;;;15.80;99.90;;;;;;5052913;28;20200;-87
2023/05/24 11:21:53;;;;;;;13.98;7.22;;;15.70;99.90;;;;;;5052039;28;20226;-86
2023/05/24 11:24:27;;;;;;;8.82;5.38;;;15.70;99.90;;;;;;5064473;28;20584;-87
2023/05/24 11:27:01;;;;;;;10.32;5.20;;;15.60;99.90;;;;;;5072596;28;20208;-86
2023/05/24 11:29:32;;;;;;;10.88;5.35;;;15.60;99.90;;;;;;5071696;28;20199;-86
2023/05/24 11:32:13;;;;;;;11.68;5.20;;;15.60;99.90;;;;;;5073545;28;20188;-87
2023/05/24 11:34:45;;;;;;;11.52;5.32;;;15.60;99.90;;;;;;5081270;28;20199;-87
2023/05/24 11:37:18;;;;;;;7.35;4.78;;;15.60;99.90;;;;;;5074399;28;20780;-86
2023/05/24 11:39:53;;;;;;;7.82;5.00;;;15.60;99.90;;;;;;5074721;28;20304;-88
2023/05/24 11:42:30;;;;;;;8.88;4.85;;;15.60;99.90;;;;;;5054726;28;20219;-87
2023/05/24 11:45:03;;;;;;;7.40;5.15;;;15.60;99.90;;;;;;5055052;28;20195;-87
2023/05/24 11:47:39;;;;;;;9.93;5.40;;;15.60;99.90;;;;;;5054936;28;20283;-87
2023/05/24 11:50:11;;;;;;;11.57;5.53;;;15.50;99.90;;;;;;5056877;28;20204;-87
2023/05/24 11:52:42;;;;;;;7.95;5.03;;;15.40;99.90;;;;;;5054555;28;20571;-88
2023/05/24 11:55:17;;;;;;;9.48;5.13;;;15.30;99.90;;;;;;5055295;28;20204;-88
2023/05/24 11:57:56;;;;;;;11.30;5.30;;;15.30;99.90;;;;;;5062173;28;20283;-88
2023/05/24 12:00:33;;;;;;;12.38;5.38;;;15.20;99.90;;;;;;5074612;28;20200;-87
2023/05/24 12:03:09;;;;;;;9.85;5.00;;;15.20;99.90;;;;;;5078703;28;20222;-87
2023/05/24 12:05:42;;;;;;;10.50;4.72;;;15.20;99.90;;;;;;5075363;28;20620;-88
2023/05/24 12:08:15;;;;;;;8.52;4.85;;;15.20;99.90;;;;;;5075233;28;20294;-87
2023/05/24 12:10:46;;;;;;;8.32;5.05;;;15.20;99.90;;;;;;5074330;28;20221;-87
2023/05/24 12:13:28;;;;;;;8.10;4.85;;;15.20;99.90;;;;;;5076875;28;20192;-86
2023/05/24 12:16:00;;;;;;;7.45;4.85;;;15.20;99.90;;;;;;5078326;28;20206;-87
2023/05/24 12:18:31;;;;;;;7.28;4.80;;;15.20;99.90;;;;;;5076474;28;20214;-87
2023/05/24 12:21:02;;;;;;;9.00;5.25;;;15.20;99.90;;;;;;5075966;28;20224;-87
2023/05/24 12:23:36;;;;;;;11.32;5.00;;;15.20;99.90;;;;;;5083357;28;20286;-87
2023/05/24 12:26:07;;;;;;;9.20;5.38;;;15.20;99.90;;;;;;5078763;28;20678;-86
2023/05/24 12:28:41;;;;;;;10.77;5.03;;;15.20;99.90;;;;;;5078212;28;20228;-87
2023/05/24 12:31:12;;;;;;;8.02;4.68;;;15.10;99.90;;;;;;5059889;28;20196;-86
2023/05/24 12:33:45;;;;;;;8.40;4.90;;;15.10;99.90;;;;;;5062633;28;20291;-87
2023/05/24 12:36:17;;;;;;;10.18;4.72;;;15.10;99.90;;;;;;5075360;28;20199;-86
2023/05/24 12:38:51;;;;;;;12.18;4.70;;;15.00;99.90;;;;;;5081193;28;20200;-87
2023/05/24 12:41:22;;;;;;;10.20;5.32;;;15.00;99.90;;;;;;5079074;28;20548;-87
2023/05/24 12:43:56;;;;;;;10.10;4.57;;;15.00;99.90;;;;;;5078020;28;20196;-87
2023/05/24 12:46:30;;;;;;;7.20;4.55;;;15.00;99.90;;;;;;5079082;28;20192;-87
2023/05/24 12:49:03;;;;;;;8.07;5.00;;;15.00;99.90;;;;;;5079489;28;20207;-88
2023/05/24 12:51:35;;;;;;;11.25;5.10;;;14.90;99.90;;;;;;5077511;28;20227;-87
2023/05/24 12:54:09;;;;;;;7.25;4.72;;;14.90;99.90;;;;;;5077770;28;20196;-88
2023/05/24 12:56:42;;;;;;;10.85;5.47;;;14.90;99.90;;;;;;5096845;28;20201;-87
2023/05/24 12:59:17;;;;;;;13.20;5.43;;;14.80;99.90;;;;;;5096140;28;20202;-87
2023/05/24 13:01:50;;;;;;;11.13;5.43;;;14.80;99.90;;;;;;5098277;28;20291;-86
2023/05/24 13:04:22;;;;;;;10.38;5.60;;;14.80;99.90;;;;;;5099013;28;20196;-88
2023/05/24 13:06:54;;;;;;;8.68;5.15;;;14.70;99.90;;;;;;5091096;28;20223;-87
2023/05/24 13:09:25;;;;;;;8.63;5.07;;;14.70;99.90;;;;;;5084558;28;20282;-88
2023/05/24 13:11:56;;;;;;;8.30;5.20;;;14.70;99.90;;;;;;5095579;28;20196;-87
2023/05/24 13:14:30;;;;;;;8.57;5.47;;;14.60;99.90;;;;;;5095237;28;20192;-87
2023/05/24 13:17:01;;;;;;;10.13;5.30;;;14.60;99.90;;;;;;5085359;28;20191;-87